Nordborg, Denmark
Current Conditions -  °F | °C
As of 11:50 AM on Wednesday 26 Nov 2014 (Local Time) from EKSB Reporting Station
Broken Clouds Broken Clouds  
Wind Chill: 35°   Ceiling: 1500
Heat Index: 43°   Visibility: 6mi
Dew Point: 39°   Wind: 17mph
Humidity: 87%   Direction: 130°SE
Pressure: 30.21"   Gusts: NA
Location:  55.06°N, 9.74°E
Report Text: EKSB 261050Z 13015KT 9999 BKN015 06/04 Q1023
Loading
Personal Weather Stations






























Interactive Weather Map New forecast layout! Learn more

10-Day Weather Forecast

Advertisements
Track Severe Weather on mobile